Time;durP1;ratioP1;P1;durP2;ratioP2;P2;SDS_P1;SDS_P2;PMS_P1;PMS_P2;Temp;Humidity;BMP_temperature;BMP_pressure;BME280_temperature;BME280_humidity;BME280_pressure;Samples;Min_cycle;Max_cycle;Signal;HPM_P1;HPM_P2
2023/04/08 05:32:42;;;;;;;;;;;7.70;88.30;;;;;;4198122;26;20335;-74
2023/04/08 05:35:08;;;;;;;;;;;7.70;88.30;;;;;;5050735;28;19917;-74
2023/04/08 05:37:34;;;;;;;;;;;7.70;88.40;;;;;;5049346;28;19917;-74
2023/04/08 05:39:59;;;;;;;;;;;7.70;88.60;;;;;;5032735;28;19913;-74
2023/04/08 05:42:25;;;;;;;;;;;7.80;88.70;;;;;;5032664;28;20368;-74
2023/04/08 05:44:51;;;;;;;;;;;7.90;88.80;;;;;;5050400;28;20004;-74
2023/04/08 05:47:17;;;;;;;;;;;7.90;88.80;;;;;;5050410;28;19917;-74
2023/04/08 05:49:42;;;;;;;;;;;8.00;88.80;;;;;;5032514;28;19962;-73
2023/04/08 05:52:08;;;;;;;;;;;8.10;88.80;;;;;;5050283;28;19919;-73
2023/04/08 05:54:33;;;;;;;;;;;8.10;88.70;;;;;;5050483;28;19917;-74
2023/04/08 05:56:59;;;;;;;;;;;8.10;88.70;;;;;;5032237;28;20282;-74
2023/04/08 05:59:24;;;;;;;;;;;8.20;88.80;;;;;;5050128;28;20013;-74
2023/04/08 06:01:50;;;;;;;;;;;8.20;88.60;;;;;;5049897;28;19924;-74
2023/04/08 06:04:16;;;;;;;;;;;8.20;88.70;;;;;;5032207;28;19913;-74
2023/04/08 06:06:42;;;;;;;;;;;8.30;88.70;;;;;;5050094;28;20009;-74
2023/04/08 06:09:08;;;;;;;;;;;8.30;88.60;;;;;;5050126;28;19962;-74
2023/04/08 06:11:34;;;;;;;;;;;8.30;88.50;;;;;;5050071;28;20292;-74
2023/04/08 06:14:00;;;;;;;;;;;8.40;88.60;;;;;;5049695;28;19913;-73
2023/04/08 06:16:26;;;;;;;;;;;8.40;88.70;;;;;;5049970;28;19913;-73
2023/04/08 06:18:51;;;;;;;;;;;8.40;88.90;;;;;;5049797;28;19913;-74
2023/04/08 06:21:17;;;;;;;;;;;8.50;89.00;;;;;;5049790;28;19921;-73
2023/04/08 06:23:43;;;;;;;;;;;8.60;89.00;;;;;;5049715;28;20366;-74
2023/04/08 06:26:08;;;;;;;;;;;8.70;89.10;;;;;;5031811;28;19970;-74
2023/04/08 06:28:34;;;;;;;;;;;8.90;89.00;;;;;;5049484;28;20034;-74
2023/04/08 06:30:59;;;;;;;;;;;9.00;88.90;;;;;;5049023;28;19916;-74
2023/04/08 06:33:25;;;;;;;;;;;9.10;88.90;;;;;;5049527;28;19986;-74
2023/04/08 06:35:51;;;;;;;;;;;9.20;88.90;;;;;;5049284;28;19915;-74
2023/04/08 06:38:16;;;;;;;;;;;9.20;88.80;;;;;;5049405;28;19920;-74
2023/04/08 06:40:42;;;;;;;;;;;9.30;88.80;;;;;;5049202;28;19924;-74
2023/04/08 06:43:07;;;;;;;;;;;9.40;88.80;;;;;;5031431;28;20015;-74
2023/04/08 06:45:33;;;;;;;;;;;9.40;88.80;;;;;;5049397;28;19920;-74
2023/04/08 06:47:59;;;;;;;;;;;9.40;88.80;;;;;;5049275;28;19919;-74
2023/04/08 06:50:24;;;;;;;;;;;9.40;88.90;;;;;;5049065;28;19917;-74
2023/04/08 06:52:50;;;;;;;;;;;9.40;89.00;;;;;;5031287;28;19917;-74
2023/04/08 06:55:15;;;;;;;;;;;9.50;89.10;;;;;;5049119;28;20292;-74
2023/04/08 06:57:41;;;;;;;;;;;9.50;89.00;;;;;;5049029;28;19917;-74
2023/04/08 07:00:07;;;;;;;;;;;9.60;89.20;;;;;;5049005;28;19984;-74
2023/04/08 07:02:33;;;;;;;;;;;9.60;89.10;;;;;;5048836;28;19917;-74
2023/04/08 07:04:58;;;;;;;;;;;9.70;89.20;;;;;;5048709;28;19917;-74
2023/04/08 07:07:25;;;;;;;;;;;9.80;89.30;;;;;;5049029;28;20071;-73
2023/04/08 07:09:50;;;;;;;;;;;9.90;89.30;;;;;;5031031;28;19962;-74
2023/04/08 07:12:16;;;;;;;;;;;10.00;89.40;;;;;;5048640;28;20378;-73
2023/04/08 07:14:41;;;;;;;;;;;10.20;89.40;;;;;;5048822;28;19920;-73
2023/04/08 07:17:07;;;;;;;;;;;10.40;89.50;;;;;;5030840;28;19920;-73
2023/04/08 07:19:32;;;;;;;;;;;10.60;89.40;;;;;;5030850;28;20046;-73
2023/04/08 07:21:58;;;;;;;;;;;10.80;89.30;;;;;;5048494;28;19916;-74
2023/04/08 07:24:24;;;;;;;;;;;10.90;89.30;;;;;;5048630;28;20365;-73
2023/04/08 07:26:50;;;;;;;;;;;10.90;89.20;;;;;;5047878;28;19912;-74
2023/04/08 07:29:15;;;;;;;;;;;11.10;89.40;;;;;;5048387;28;20019;-74
2023/04/08 07:31:44;;;;;;;;;;;11.30;89.40;;;;;;5047782;28;19953;-74
2023/04/08 07:34:10;;;;;;;;;;;11.40;89.50;;;;;;5048308;28;20284;-74
2023/04/08 07:36:35;;;;;;;;;;;11.50;89.70;;;;;;5048183;28;19917;-73
2023/04/08 07:39:02;;;;;;;;;;;11.80;90.00;;;;;;5030436;28;19913;-74
2023/04/08 07:41:27;;;;;;;;;;;12.10;90.00;;;;;;5048160;28;19956;-74
2023/04/08 07:43:53;;;;;;;;;;;12.50;89.90;;;;;;5047923;28;19944;-74
2023/04/08 07:46:19;;;;;;;;;;;12.70;89.80;;;;;;5047934;28;20268;-74
2023/04/08 07:48:45;;;;;;;;;;;13.00;89.90;;;;;;5030198;28;20300;-74
2023/04/08 07:51:11;;;;;;;;;;;13.30;89.90;;;;;;5029734;28;19925;-74
2023/04/08 07:53:37;;;;;;;;;;;13.50;89.60;;;;;;5047702;28;19913;-74
2023/04/08 07:56:05;;;;;;;;;;;13.70;89.90;;;;;;5047642;28;19914;-74
2023/04/08 07:58:31;;;;;;;;;;;14.00;89.90;;;;;;5047639;28;19916;-74
2023/04/08 08:00:57;;;;;;;;;;;14.20;90.00;;;;;;5047544;28;19912;-74
2023/04/08 08:03:22;;;;;;;;;;;14.40;90.00;;;;;;5047629;28;19982;-74
2023/04/08 08:05:48;;;;;;;;;;;15.10;90.60;;;;;;5047350;28;19912;-74
2023/04/08 08:08:14;;;;;;;;;;;16.40;91.00;;;;;;5047321;28;19959;-74
2023/04/08 08:10:39;;;;;;;;;;;17.50;90.50;;;;;;5046963;28;20357;-74
2023/04/08 08:13:06;;;;;;;;;;;17.80;89.60;;;;;;5047313;28;20046;-74
2023/04/08 08:15:31;;;;;;;;;;;17.60;89.00;;;;;;5047050;28;19970;-73
2023/04/08 08:17:57;;;;;;;;;;;17.20;88.90;;;;;;5047310;28;19995;-74
2023/04/08 08:20:22;;;;;;;;;;;16.80;89.00;;;;;;5047145;28;20444;-74
2023/04/08 08:22:48;;;;;;;;;;;16.40;89.10;;;;;;5047293;28;19917;-74
2023/04/08 08:25:14;;;;;;;;;;;16.30;90.00;;;;;;5047456;28;20320;-74
2023/04/08 08:27:41;;;;;;;;;;;16.50;90.50;;;;;;5047593;28;19909;-74
2023/04/08 08:30:07;;;;;;;;;;;17.10;90.70;;;;;;5047452;28;19909;-74
2023/04/08 08:32:33;;;;;;;;;;;17.40;90.40;;;;;;5047131;28;19932;-74
2023/04/08 08:34:58;;;;;;;;;;;17.60;90.30;;;;;;5047238;28;20011;-74
2023/04/08 08:37:24;;;;;;;;;;;17.80;90.20;;;;;;5048093;28;19955;-74
2023/04/08 08:39:49;;;;;;;;;;;17.80;90.10;;;;;;5051221;28;19913;-74
2023/04/08 08:42:22;;;;;;;;;;;17.80;90.10;;;;;;5051047;28;20356;-75
2023/04/08 08:44:47;;;;;;;;;;;17.60;89.90;;;;;;5033030;28;19919;-74
2023/04/08 08:47:13;;;;;;;;;;;17.20;89.60;;;;;;5051219;28;19913;-74
2023/04/08 08:49:39;;;;;;;;;;;17.20;90.40;;;;;;5050792;28;20015;-74
2023/04/08 08:52:05;;;;;;;;;;;17.30;90.40;;;;;;5016486;28;19924;-74
2023/04/08 08:54:31;;;;;;;;;;;17.00;90.00;;;;;;5051035;28;19913;-74
2023/04/08 08:56:57;;;;;;;;;;;16.90;90.50;;;;;;5032661;28;19958;-72
2023/04/08 08:59:22;;;;;;;;;;;17.10;90.80;;;;;;5050723;28;20599;-72
2023/04/08 09:01:48;;;;;;;;;;;17.70;91.00;;;;;;5050793;28;19999;-72
2023/04/08 09:04:16;;;;;;;;;;;18.40;91.10;;;;;;5050625;28;19916;-73
2023/04/08 09:06:43;;;;;;;;;;;19.30;91.10;;;;;;5051190;28;19913;-71
2023/04/08 09:09:09;;;;;;;;;;;19.80;91.00;;;;;;5051698;28;20045;-71
2023/04/08 09:11:42;;;;;;;;;;;19.90;90.30;;;;;;5051428;28;19948;-70
2023/04/08 09:14:18;;;;;;;;;;;19.90;90.40;;;;;;5024629;28;19995;-70
2023/04/08 09:16:44;;;;;;;;;;;20.10;90.70;;;;;;5043669;28;19913;-70
2023/04/08 09:19:10;;;;;;;;;;;20.50;90.80;;;;;;5045579;28;19924;-72
2023/04/08 09:21:36;;;;;;;;;;;21.00;91.00;;;;;;5042306;28;20311;-70
2023/04/08 09:24:02;;;;;;;;;;;21.60;91.00;;;;;;5039515;28;19979;-71
2023/04/08 09:26:27;;;;;;;;;;;22.00;90.60;;;;;;5034155;28;19917;-71
2023/04/08 09:28:57;;;;;;;;;;;22.10;90.60;;;;;;5031738;28;19917;-71
2023/04/08 09:31:24;;;;;;;;;;;21.90;90.60;;;;;;5031296;28;19917;-71
2023/04/08 09:33:50;;;;;;;;;;;21.90;90.60;;;;;;5031245;28;19909;-71
2023/04/08 09:36:16;;;;;;;;;;;21.90;90.50;;;;;;5035922;28;20340;-71
2023/04/08 09:38:42;;;;;;;;;;;22.00;90.90;;;;;;5053291;28;19917;-71
2023/04/08 09:41:10;;;;;;;;;;;22.00;90.60;;;;;;5048808;28;20265;-71
2023/04/08 09:43:41;;;;;;;;;;;21.70;90.60;;;;;;5050712;28;19909;-71
2023/04/08 09:46:10;;;;;;;;;;;21.80;91.10;;;;;;5050419;28;19912;-72
2023/04/08 09:48:39;;;;;;;;;;;22.40;91.60;;;;;;5049714;28;19913;-73
2023/04/08 09:51:05;;;;;;;;;;;23.10;91.50;;;;;;5049670;28;19947;-72
2023/04/08 09:53:35;;;;;;;;;;;23.90;91.50;;;;;;5050317;28;19912;-72
2023/04/08 09:56:06;;;;;;;;;;;24.30;91.20;;;;;;5050384;28;19925;-73
2023/04/08 09:58:34;;;;;;;;;;;24.70;91.20;;;;;;5049983;28;19909;-73
2023/04/08 10:01:00;;;;;;;;;;;25.10;91.30;;;;;;5049875;28;19969;-72
2023/04/08 10:03:32;;;;;;;;;;;25.30;91.00;;;;;;5050114;28;20027;-72
2023/04/08 10:06:09;;;;;;;;;;;25.50;91.40;;;;;;5044303;28;20364;-71
2023/04/08 10:08:34;;;;;;;;;;;25.80;91.00;;;;;;5022510;28;19938;-72
2023/04/08 10:11:00;;;;;;;;;;;25.90;91.20;;;;;;5038488;28;19909;-72
2023/04/08 10:13:27;;;;;;;;;;;26.20;91.20;;;;;;5042027;28;19936;-75
2023/04/08 10:16:12;;;;;;;;;;;26.20;91.00;;;;;;5036653;28;19963;-72
2023/04/08 10:18:38;;;;;;;;;;;26.30;91.10;;;;;;5043898;28;19913;-71
2023/04/08 10:21:04;;;;;;;;;;;26.50;91.00;;;;;;5049859;28;20385;-73
2023/04/08 10:23:49;;;;;;;;;;;26.50;91.00;;;;;;5050091;28;19912;-73
2023/04/08 10:26:32;;;;;;;;;;;26.40;91.00;;;;;;5049963;28;19913;-73
2023/04/08 10:29:16;;;;;;;;;;;25.70;90.60;;;;;;5050048;28;19970;-75
2023/04/08 10:31:41;;;;;;;;;;;25.20;91.20;;;;;;5049224;28;20607;-74
2023/04/08 10:34:16;;;;;;;;;;;25.40;91.60;;;;;;5050269;28;19920;-74
2023/04/08 10:36:43;;;;;;;;;;;25.30;91.40;;;;;;5049474;28;20316;-74
2023/04/08 10:39:09;;;;;;;;;;;25.40;91.50;;;;;;5049686;28;19908;-74
2023/04/08 10:41:34;;;;;;;;;;;25.60;91.40;;;;;;5049435;28;19940;-74
2023/04/08 10:44:03;;;;;;;;;;;25.50;91.20;;;;;;5049254;28;20313;-75
2023/04/08 10:46:36;;;;;;;;;;;25.40;91.40;;;;;;5049740;28;19920;-76
2023/04/08 10:49:02;;;;;;;;;;;25.30;91.30;;;;;;5049164;28;19966;-73
2023/04/08 10:51:31;;;;;;;;;;;25.20;91.50;;;;;;5048808;28;19913;-75
2023/04/08 10:54:04;;;;;;;;;;;24.90;91.50;;;;;;5049082;28;19909;-75
2023/04/08 10:56:30;;;;;;;;;;;24.60;91.50;;;;;;5031817;28;19909;-76
2023/04/08 10:58:55;;;;;;;;;;;24.40;91.50;;;;;;5049359;28;19920;-75
2023/04/08 11:01:21;;;;;;;;;;;24.30;91.40;;;;;;5044841;28;19956;-76
2023/04/08 11:03:47;;;;;;;;;;;24.00;91.20;;;;;;5038769;28;19908;-76
2023/04/08 11:06:13;;;;;;;;;;;23.50;91.00;;;;;;5048043;28;19909;-75
2023/04/08 11:08:38;;;;;;;;;;;22.80;90.90;;;;;;5026010;28;19956;-75
2023/04/08 11:11:07;;;;;;;;;;;22.20;91.20;;;;;;5020864;28;19909;-73
2023/04/08 11:13:35;;;;;;;;;;;21.90;91.40;;;;;;5037511;28;20397;-74
2023/04/08 11:16:01;;;;;;;;;;;21.90;91.70;;;;;;5040505;28;19909;-74
2023/04/08 11:18:27;;;;;;;;;;;22.00;91.60;;;;;;5040366;28;19917;-75
2023/04/08 11:20:53;;;;;;;;;;;21.80;91.20;;;;;;5040402;28;20023;-75
2023/04/08 11:23:19;;;;;;;;;;;21.30;91.00;;;;;;5036868;28;19928;-76
2023/04/08 11:25:45;;;;;;;;;;;21.00;91.20;;;;;;5038670;28;19909;-75
2023/04/08 11:28:12;;;;;;;;;;;20.80;91.20;;;;;;5037801;28;19924;-75
2023/04/08 11:30:39;;;;;;;;;;;20.80;91.40;;;;;;5041993;28;19909;-76
2023/04/08 11:33:05;;;;;;;;;;;20.90;91.30;;;;;;5017818;28;19998;-75
2023/04/08 11:35:30;;;;;;;;;;;20.80;91.00;;;;;;5037348;28;19960;-75
2023/04/08 11:37:57;;;;;;;;;;;20.70;91.10;;;;;;5035014;28;19916;-75
2023/04/08 11:40:23;;;;;;;;;;;20.70;91.10;;;;;;5039974;28;19999;-76
2023/04/08 11:42:49;;;;;;;;;;;20.70;91.20;;;;;;5018819;28;19913;-74
2023/04/08 11:45:15;;;;;;;;;;;20.90;91.40;;;;;;5034345;28;20047;-77
2023/04/08 11:47:41;;;;;;;;;;;21.30;91.50;;;;;;5039570;28;19908;-75
2023/04/08 11:50:07;;;;;;;;;;;21.80;91.80;;;;;;5036376;28;19909;-74
2023/04/08 11:52:40;;;;;;;;;;;22.40;91.60;;;;;;5010767;28;19987;-77
2023/04/08 11:55:06;;;;;;;;;;;22.90;91.60;;;;;;5028211;28;19955;-77
2023/04/08 11:57:31;;;;;;;;;;;23.40;91.50;;;;;;5028164;28;19921;-77
2023/04/08 11:59:57;;;;;;;;;;;23.90;91.50;;;;;;5027966;28;19913;-76
2023/04/08 12:02:23;;;;;;;;;;;24.40;91.30;;;;;;5027331;28;19921;-75
2023/04/08 12:04:48;;;;;;;;;;;24.80;91.20;;;;;;5027746;28;20200;-75
2023/04/08 12:07:14;;;;;;;;;;;24.90;91.10;;;;;;5027837;28;19924;-75
2023/04/08 12:09:39;;;;;;;;;;;24.90;91.10;;;;;;5027892;28;19959;-75
2023/04/08 12:12:05;;;;;;;;;;;25.00;91.10;;;;;;5027880;28;20543;-75
2023/04/08 12:14:31;;;;;;;;;;;25.20;91.30;;;;;;5028123;28;19964;-75
2023/04/08 12:16:57;;;;;;;;;;;25.30;91.30;;;;;;5012494;28;19996;-76
2023/04/08 12:19:22;;;;;;;;;;;25.40;91.20;;;;;;5027864;28;20157;-75
2023/04/08 12:21:48;;;;;;;;;;;25.30;91.00;;;;;;5038355;28;20012;-75
2023/04/08 12:24:13;;;;;;;;;;;25.30;91.20;;;;;;5039062;28;19936;-74
2023/04/08 12:26:39;;;;;;;;;;;25.30;91.20;;;;;;5039014;28;20059;-75
2023/04/08 12:29:04;;;;;;;;;;;25.20;91.10;;;;;;5047637;28;20345;-75
2023/04/08 12:31:30;;;;;;;;;;;24.90;91.00;;;;;;5040855;28;20384;-75
2023/04/08 12:33:56;;;;;;;;;;;24.30;90.90;;;;;;5043659;28;19913;-74
2023/04/08 12:36:21;;;;;;;;;;;23.80;91.10;;;;;;5047934;28;19913;-76
2023/04/08 12:38:47;;;;;;;;;;;23.30;91.10;;;;;;5047910;28;19913;-76
2023/04/08 12:41:13;;;;;;;;;;;22.80;91.00;;;;;;5047646;28;19916;-76
2023/04/08 12:43:38;;;;;;;;;;;22.30;90.80;;;;;;5047756;28;19978;-73
2023/04/08 12:46:04;;;;;;;;;;;21.90;90.90;;;;;;5030240;28;20284;-72
2023/04/08 12:48:30;;;;;;;;;;;21.60;90.90;;;;;;5048235;28;19920;-73
2023/04/08 12:50:55;;;;;;;;;;;21.40;91.10;;;;;;5048025;28;19916;-73
2023/04/08 12:53:21;;;;;;;;;;;21.20;91.10;;;;;;5047584;28;20395;-70
2023/04/08 12:55:47;;;;;;;;;;;20.90;90.90;;;;;;5047492;28;19927;-72
2023/04/08 12:58:12;;;;;;;;;;;20.50;90.80;;;;;;5029625;28;20337;-72
2023/04/08 13:00:39;;;;;;;;;;;20.20;90.80;;;;;;5048033;28;19944;-72
2023/04/08 13:03:05;;;;;;;;;;;20.00;91.10;;;;;;5048114;28;19916;-73
2023/04/08 13:05:30;;;;;;;;;;;20.10;91.10;;;;;;5047893;28;19912;-71
2023/04/08 13:07:56;;;;;;;;;;;20.10;91.00;;;;;;5047736;28;19939;-71
2023/04/08 13:10:21;;;;;;;;;;;20.40;91.20;;;;;;5030140;28;19913;-76
2023/04/08 13:12:47;;;;;;;;;;;20.60;90.90;;;;;;5030345;28;19913;-75
2023/04/08 13:15:13;;;;;;;;;;;20.70;91.00;;;;;;5048101;28;19913;-74
2023/04/08 13:17:38;;;;;;;;;;;20.50;90.50;;;;;;5048118;28;19956;-75
2023/04/08 13:20:05;;;;;;;;;;;20.30;90.50;;;;;;5029549;28;20333;-73
2023/04/08 13:22:32;;;;;;;;;;;20.20;90.70;;;;;;5046837;28;19917;-72
2023/04/08 13:24:57;;;;;;;;;;;20.10;90.70;;;;;;5049412;28;19913;-73
2023/04/08 13:27:23;;;;;;;;;;;20.10;90.60;;;;;;5033182;28;20031;-73
2023/04/08 13:29:49;;;;;;;;;;;20.00;90.50;;;;;;5051161;28;19913;-72
2023/04/08 13:32:14;;;;;;;;;;;20.00;90.60;;;;;;5049260;28;19929;-73
2023/04/08 13:34:41;;;;;;;;;;;20.10;90.70;;;;;;5035479;28;20404;-73
2023/04/08 13:37:06;;;;;;;;;;;20.40;91.00;;;;;;5032525;28;20246;-73
2023/04/08 13:39:32;;;;;;;;;;;20.70;90.80;;;;;;5032904;28;19923;-73
2023/04/08 13:41:57;;;;;;;;;;;20.80;90.60;;;;;;5045121;28;19924;-73
2023/04/08 13:44:23;;;;;;;;;;;20.60;90.40;;;;;;5020903;28;19920;-73
2023/04/08 13:46:49;;;;;;;;;;;20.40;90.30;;;;;;5038946;28;20301;-73
2023/04/08 13:49:15;;;;;;;;;;;20.20;90.20;;;;;;5023754;28;19928;-73
2023/04/08 13:51:40;;;;;;;;;;;19.90;90.30;;;;;;5035828;28;19909;-73
2023/04/08 13:54:06;;;;;;;;;;;19.60;90.20;;;;;;5039873;28;19929;-73
2023/04/08 13:56:31;;;;;;;;;;;19.30;90.30;;;;;;5042529;28;19916;-73
2023/04/08 13:58:57;;;;;;;;;;;19.20;90.40;;;;;;5042091;28;20074;-72
2023/04/08 14:01:23;;;;;;;;;;;19.20;90.40;;;;;;5044408;28;19937;-75
2023/04/08 14:03:48;;;;;;;;;;;19.20;90.40;;;;;;5050105;28;19909;-72
2023/04/08 14:06:14;;;;;;;;;;;19.20;90.40;;;;;;5049891;28;19917;-72
2023/04/08 14:08:40;;;;;;;;;;;19.20;90.40;;;;;;5050173;28;19919;-72
2023/04/08 14:11:05;;;;;;;;;;;19.30;90.30;;;;;;5049983;28;20002;-73
2023/04/08 14:13:31;;;;;;;;;;;19.10;90.20;;;;;;5050070;28;20014;-72
2023/04/08 14:15:57;;;;;;;;;;;19.00;90.30;;;;;;5015379;28;19935;-74
2023/04/08 14:18:23;;;;;;;;;;;19.00;90.20;;;;;;5050038;28;19948;-71
2023/04/08 14:20:48;;;;;;;;;;;18.90;90.20;;;;;;5049489;28;19983;-71
2023/04/08 14:23:15;;;;;;;;;;;18.90;90.10;;;;;;5049772;28;19956;-72
2023/04/08 14:25:41;;;;;;;;;;;19.00;90.10;;;;;;5049626;28;19959;-73
2023/04/08 14:28:07;;;;;;;;;;;18.90;90.00;;;;;;5049984;28;19913;-76
2023/04/08 14:30:34;;;;;;;;;;;18.80;89.90;;;;;;5031622;28;20342;-75
2023/04/08 14:33:00;;;;;;;;;;;18.60;89.90;;;;;;5049537;28;19956;-72
2023/04/08 14:35:25;;;;;;;;;;;18.40;89.90;;;;;;5021566;28;19957;-74
2023/04/08 14:37:51;;;;;;;;;;;18.20;90.00;;;;;;5029132;28;19932;-71
2023/04/08 14:40:16;;;;;;;;;;;18.10;90.30;;;;;;5029880;28;19913;-74
2023/04/08 14:42:44;;;;;;;;;;;18.00;90.10;;;;;;5029977;28;20297;-75
2023/04/08 14:45:10;;;;;;;;;;;17.90;90.40;;;;;;5030123;28;19973;-71
2023/04/08 14:47:35;;;;;;;;;;;17.80;90.10;;;;;;5029748;28;19917;-71
2023/04/08 14:50:01;;;;;;;;;;;17.80;90.20;;;;;;5038907;28;20305;-73
2023/04/08 14:52:26;;;;;;;;;;;17.80;90.10;;;;;;5036019;28;20000;-71
2023/04/08 14:54:52;;;;;;;;;;;17.70;90.00;;;;;;5022642;28;20375;-71
2023/04/08 14:57:18;;;;;;;;;;;17.70;90.10;;;;;;5038667;28;19920;-71
2023/04/08 14:59:44;;;;;;;;;;;17.70;90.10;;;;;;5023171;28;20004;-72
2023/04/08 15:02:11;;;;;;;;;;;17.70;90.00;;;;;;5017566;28;19920;-71
2023/04/08 15:04:36;;;;;;;;;;;17.60;89.90;;;;;;5037547;28;19913;-70
2023/04/08 15:07:02;;;;;;;;;;;17.60;89.80;;;;;;5038958;28;20384;-70
2023/04/08 15:09:28;;;;;;;;;;;17.40;89.80;;;;;;5038147;28;19921;-70
2023/04/08 15:11:53;;;;;;;;;;;17.40;89.80;;;;;;5037108;28;19917;-70
2023/04/08 15:14:19;;;;;;;;;;;17.30;89.90;;;;;;5037251;28;19917;-70
2023/04/08 15:16:44;;;;;;;;;;;17.30;90.00;;;;;;5022287;28;20055;-71
2023/04/08 15:19:10;;;;;;;;;;;17.30;90.00;;;;;;5027453;28;20350;-74
2023/04/08 15:21:36;;;;;;;;;;;17.20;90.00;;;;;;5038501;28;20265;-69
2023/04/08 15:24:01;;;;;;;;;;;17.20;90.00;;;;;;5040012;28;19913;-70
2023/04/08 15:26:27;;;;;;;;;;;17.30;90.00;;;;;;5040280;28;19917;-71
2023/04/08 15:28:54;;;;;;;;;;;17.20;89.80;;;;;;5014614;28;20004;-72
2023/04/08 15:31:20;;;;;;;;;;;17.20;89.80;;;;;;5035508;28;19928;-73
2023/04/08 15:33:45;;;;;;;;;;;17.10;90.00;;;;;;5036851;28;20008;-72
2023/04/08 15:36:12;;;;;;;;;;;17.10;90.00;;;;;;5048708;28;19999;-73
2023/04/08 15:38:38;;;;;;;;;;;17.10;90.00;;;;;;5049177;28;19908;-72
2023/04/08 15:41:04;;;;;;;;;;;17.10;90.00;;;;;;5049030;28;20445;-71
2023/04/08 15:43:29;;;;;;;;;;;17.10;90.00;;;;;;5048591;28;19927;-75
2023/04/08 15:45:55;;;;;;;;;;;17.10;90.00;;;;;;5013875;28;19921;-72
2023/04/08 15:48:21;;;;;;;;;;;17.10;89.90;;;;;;5047860;28;19920;-73
2023/04/08 15:50:46;;;;;;;;;;;17.10;89.80;;;;;;5048212;28;20237;-71
2023/04/08 15:53:12;;;;;;;;;;;17.10;89.70;;;;;;5030399;28;19913;-71
2023/04/08 15:55:38;;;;;;;;;;;17.00;89.80;;;;;;5048200;28;20310;-76
2023/04/08 15:58:04;;;;;;;;;;;16.90;89.90;;;;;;5048552;28;19957;-73
2023/04/08 16:00:30;;;;;;;;;;;17.00;90.10;;;;;;5048407;28;19918;-72
2023/04/08 16:02:56;;;;;;;;;;;17.10;90.00;;;;;;5048317;28;19917;-71
2023/04/08 16:05:21;;;;;;;;;;;17.10;89.90;;;;;;5048357;28;20253;-72
2023/04/08 16:07:47;;;;;;;;;;;17.00;89.80;;;;;;5048560;28;19975;-73
2023/04/08 16:10:13;;;;;;;;;;;17.00;90.00;;;;;;5048371;28;19977;-71
2023/04/08 16:12:38;;;;;;;;;;;17.10;90.00;;;;;;5048148;28;19985;-72
2023/04/08 16:15:04;;;;;;;;;;;17.20;89.90;;;;;;5048222;28;20234;-74
2023/04/08 16:17:30;;;;;;;;;;;17.20;89.80;;;;;;5048335;28;19963;-72
2023/04/08 16:19:56;;;;;;;;;;;17.30;90.00;;;;;;5045048;28;19916;-71
2023/04/08 16:22:21;;;;;;;;;;;17.40;90.00;;;;;;5045014;28;19916;-71
2023/04/08 16:24:47;;;;;;;;;;;17.60;89.90;;;;;;5048270;28;19931;-71
2023/04/08 16:27:12;;;;;;;;;;;17.60;89.60;;;;;;5037289;28;19923;-70
2023/04/08 16:29:38;;;;;;;;;;;17.60;89.40;;;;;;5030368;28;19939;-71
2023/04/08 16:32:04;;;;;;;;;;;17.50;89.50;;;;;;5027963;28;20016;-71
2023/04/08 16:34:29;;;;;;;;;;;17.40;89.80;;;;;;5027955;28;20362;-71
2023/04/08 16:36:55;;;;;;;;;;;17.50;89.60;;;;;;5028071;28;19921;-70
2023/04/08 16:39:21;;;;;;;;;;;17.40;89.60;;;;;;5028122;28;19975;-70
2023/04/08 16:41:46;;;;;;;;;;;17.30;89.40;;;;;;5010172;28;19921;-71
2023/04/08 16:44:12;;;;;;;;;;;17.30;89.70;;;;;;5010556;28;20253;-72
2023/04/08 16:46:38;;;;;;;;;;;17.30;89.70;;;;;;5010285;28;20266;-71
2023/04/08 16:49:14;;;;;;;;;;;17.30;89.50;;;;;;5029023;28;19914;-68
2023/04/08 16:51:40;;;;;;;;;;;17.40;89.60;;;;;;5010944;28;20365;-70
2023/04/08 16:54:05;;;;;;;;;;;17.40;89.50;;;;;;5028083;28;19913;-72
2023/04/08 16:56:31;;;;;;;;;;;17.40;89.50;;;;;;4994367;28;19977;-71
2023/04/08 16:58:56;;;;;;;;;;;17.30;89.50;;;;;;5028226;28;20312;-73
2023/04/08 17:01:22;;;;;;;;;;;17.30;89.40;;;;;;5031736;28;20003;-72
2023/04/08 17:03:48;;;;;;;;;;;17.20;89.30;;;;;;5031739;28;19935;-72
2023/04/08 17:06:14;;;;;;;;;;;17.10;89.30;;;;;;5032188;28;19913;-74
2023/04/08 17:08:43;;;;;;;;;;;17.00;89.20;;;;;;5014679;28;19913;-72
2023/04/08 17:11:12;;;;;;;;;;;16.90;89.20;;;;;;5014149;28;19920;-71
2023/04/08 17:13:39;;;;;;;;;;;16.70;89.40;;;;;;5031219;28;19913;-72
2023/04/08 17:16:05;;;;;;;;;;;16.70;89.50;;;;;;5031569;28;20012;-73
2023/04/08 17:18:30;;;;;;;;;;;16.60;89.40;;;;;;5031987;28;20437;-74
2023/04/08 17:20:56;;;;;;;;;;;16.60;89.30;;;;;;5031510;28;19909;-73
2023/04/08 17:23:22;;;;;;;;;;;16.50;89.30;;;;;;5031554;28;19975;-72
2023/04/08 17:25:47;;;;;;;;;;;16.40;89.50;;;;;;5031747;28;19982;-71
2023/04/08 17:28:13;;;;;;;;;;;16.30;89.30;;;;;;5013117;28;19913;-74
2023/04/08 17:30:38;;;;;;;;;;;16.10;89.40;;;;;;5031507;28;20278;-75
2023/04/08 17:33:04;;;;;;;;;;;16.00;89.40;;;;;;5031306;28;19944;-76
2023/04/08 17:35:30;;;;;;;;;;;16.00;89.50;;;;;;5031332;28;20255;-75
2023/04/08 17:37:56;;;;;;;;;;;16.00;89.50;;;;;;5013470;28;19909;-77
2023/04/08 17:40:21;;;;;;;;;;;16.00;89.60;;;;;;5016473;28;19925;-75
2023/04/08 17:42:47;;;;;;;;;;;16.10;89.50;;;;;;5043453;28;19944;-75
2023/04/08 17:45:12;;;;;;;;;;;16.10;89.50;;;;;;5042260;28;20380;-76
2023/04/08 17:47:38;;;;;;;;;;;16.10;89.30;;;;;;5036554;28;19917;-74
2023/04/08 17:50:04;;;;;;;;;;;16.10;89.30;;;;;;5050827;28;20413;-72
2023/04/08 17:52:29;;;;;;;;;;;16.20;89.30;;;;;;5050086;28;20250;-77
2023/04/08 17:54:55;;;;;;;;;;;16.20;89.30;;;;;;5042526;28;19963;-76
2023/04/08 17:57:21;;;;;;;;;;;16.20;89.20;;;;;;5030774;28;19924;-76
2023/04/08 17:59:46;;;;;;;;;;;16.20;89.10;;;;;;5030141;28;19941;-75
2023/04/08 18:02:12;;;;;;;;;;;16.20;89.10;;;;;;5029620;28;19917;-76
2023/04/08 18:04:38;;;;;;;;;;;16.10;89.20;;;;;;5026527;28;19932;-76
2023/04/08 18:07:04;;;;;;;;;;;16.10;89.10;;;;;;5029854;28;19909;-76
2023/04/08 18:09:30;;;;;;;;;;;16.00;89.10;;;;;;5029441;28;20410;-77
2023/04/08 18:11:55;;;;;;;;;;;16.00;89.10;;;;;;5027768;28;19940;-76
2023/04/08 18:14:21;;;;;;;;;;;15.90;89.20;;;;;;5027164;28;19929;-76
2023/04/08 18:16:46;;;;;;;;;;;15.90;89.30;;;;;;5008766;28;20293;-77
2023/04/08 18:19:12;;;;;;;;;;;15.90;89.10;;;;;;5025615;28;19983;-76
2023/04/08 18:21:37;;;;;;;;;;;15.80;89.00;;;;;;5006036;28;19924;-76
2023/04/08 18:24:03;;;;;;;;;;;15.60;89.00;;;;;;5024591;28;20003;-76
2023/04/08 18:26:30;;;;;;;;;;;15.60;89.00;;;;;;5025176;28;19916;-76
2023/04/08 18:28:55;;;;;;;;;;;15.50;89.00;;;;;;5024133;28;20439;-76
2023/04/08 18:31:22;;;;;;;;;;;15.40;89.00;;;;;;5023822;28;19921;-75
2023/04/08 18:33:48;;;;;;;;;;;15.30;88.90;;;;;;5024562;28;19913;-76
2023/04/08 18:36:14;;;;;;;;;;;15.20;88.80;;;;;;5026073;28;19925;-76
2023/04/08 18:38:40;;;;;;;;;;;15.10;88.70;;;;;;5026912;28;19920;-76
2023/04/08 18:41:06;;;;;;;;;;;14.90;88.70;;;;;;5027456;28;20176;-76
2023/04/08 18:43:32;;;;;;;;;;;14.80;88.70;;;;;;5028151;28;20435;-76
2023/04/08 18:45:58;;;;;;;;;;;14.60;88.80;;;;;;5028691;28;20157;-76
2023/04/08 18:48:23;;;;;;;;;;;14.50;88.80;;;;;;5028480;28;19909;-76
2023/04/08 18:50:49;;;;;;;;;;;14.40;88.90;;;;;;5010444;28;19913;-76
2023/04/08 18:53:15;;;;;;;;;;;14.40;88.90;;;;;;5028514;28;19921;-76
2023/04/08 18:55:43;;;;;;;;;;;14.30;88.90;;;;;;5028437;28;19920;-76
2023/04/08 18:58:09;;;;;;;;;;;14.30;88.80;;;;;;5028260;28;19923;-76
2023/04/08 19:00:36;;;;;;;;;;;14.20;88.70;;;;;;5010141;28;20011;-77
2023/04/08 19:03:02;;;;;;;;;;;14.20;88.70;;;;;;5028016;28;19914;-76
2023/04/08 19:05:27;;;;;;;;;;;14.00;88.70;;;;;;5028448;28;19964;-76
2023/04/08 19:07:53;;;;;;;;;;;14.00;88.70;;;;;;5028284;28;19945;-76
2023/04/08 19:10:20;;;;;;;;;;;13.90;88.70;;;;;;5028085;28;20399;-76
2023/04/08 19:12:46;;;;;;;;;;;13.90;88.70;;;;;;5027968;28;19920;-76
2023/04/08 19:15:12;;;;;;;;;;;13.80;88.60;;;;;;4993817;28;19913;-76
2023/04/08 19:17:37;;;;;;;;;;;13.70;88.60;;;;;;5028176;28;19913;-77
2023/04/08 19:20:03;;;;;;;;;;;13.70;88.60;;;;;;5027831;28;19919;-76
2023/04/08 19:22:29;;;;;;;;;;;13.70;88.50;;;;;;5026880;28;19928;-76
2023/04/08 19:24:55;;;;;;;;;;;13.70;88.50;;;;;;5010233;28;19921;-76
2023/04/08 19:27:20;;;;;;;;;;;13.60;88.40;;;;;;5027759;28;19961;-76
2023/04/08 19:29:46;;;;;;;;;;;13.60;88.30;;;;;;5009827;28;19925;-76
2023/04/08 19:32:13;;;;;;;;;;;13.60;88.30;;;;;;5027299;28;20024;-75
2023/04/08 19:34:39;;;;;;;;;;;13.50;88.20;;;;;;5027481;28;20257;-76
2023/04/08 19:37:05;;;;;;;;;;;13.40;88.20;;;;;;5027525;28;19909;-76
2023/04/08 19:39:30;;;;;;;;;;;13.40;88.20;;;;;;5027499;28;20301;-76
2023/04/08 19:41:56;;;;;;;;;;;13.30;88.20;;;;;;5026974;28;19917;-77
2023/04/08 19:44:22;;;;;;;;;;;13.20;88.20;;;;;;5027041;28;19925;-76